sensor_id;sensor_type;location;lat;lon;timestamp;pressure;altitude;pressure_sealevel;temperature;humidity
20027;BME280;10174;42.688;23.344;2023-04-28T00:02:12;95529.53;;;6.01;54.22
20027;BME280;10174;42.688;23.344;2023-04-28T00:04:38;95549.94;;;6.07;55.22
20027;BME280;10174;42.688;23.344;2023-04-28T00:07:03;95537.38;;;5.96;54.98
20027;BME280;10174;42.688;23.344;2023-04-28T00:09:28;95515.06;;;5.78;55.12
20027;BME280;10174;42.688;23.344;2023-04-28T00:11:54;95529.56;;;5.82;55.27
20027;BME280;10174;42.688;23.344;2023-04-28T00:14:19;95531.31;;;5.88;55.42
20027;BME280;10174;42.688;23.344;2023-04-28T00:16:45;95533.41;;;5.86;55.59
20027;BME280;10174;42.688;23.344;2023-04-28T00:19:10;95440.72;;;5.28;55.22
20027;BME280;10174;42.688;23.344;2023-04-28T00:21:35;95556.97;;;5.89;55.69
20027;BME280;10174;42.688;23.344;2023-04-28T00:24:01;95547.44;;;5.94;55.77
20027;BME280;10174;42.688;23.344;2023-04-28T00:26:26;95552.75;;;5.82;55.71
20027;BME280;10174;42.688;23.344;2023-04-28T00:28:51;95464.03;;;5.32;55.64
20027;BME280;10174;42.688;23.344;2023-04-28T00:31:17;95530.78;;;5.68;56.72
20027;BME280;10174;42.688;23.344;2023-04-28T00:33:43;95530.75;;;5.56;56.22
20027;BME280;10174;42.688;23.344;2023-04-28T00:36:09;95542.34;;;5.62;56.58
20027;BME280;10174;42.688;23.344;2023-04-28T00:38:35;95528.63;;;5.46;56.73
20027;BME280;10174;42.688;23.344;2023-04-28T00:41:01;95555.53;;;5.57;57.46
20027;BME280;10174;42.688;23.344;2023-04-28T00:43:26;95562.06;;;5.61;56.92
20027;BME280;10174;42.688;23.344;2023-04-28T00:45:52;95526.72;;;5.35;56.90
20027;BME280;10174;42.688;23.344;2023-04-28T00:48:18;95528.34;;;5.36;57.29
20027;BME280;10174;42.688;23.344;2023-04-28T00:50:44;95539.00;;;5.36;57.62
20027;BME280;10174;42.688;23.344;2023-04-28T00:53:10;95532.50;;;5.32;57.87
20027;BME280;10174;42.688;23.344;2023-04-28T00:55:37;95451.91;;;4.88;57.69
20027;BME280;10174;42.688;23.344;2023-04-28T00:58:04;95553.22;;;5.48;57.80
20027;BME280;10174;42.688;23.344;2023-04-28T01:00:29;95557.78;;;5.41;57.10
20027;BME280;10174;42.688;23.344;2023-04-28T01:02:56;95547.44;;;5.14;57.72
20027;BME280;10174;42.688;23.344;2023-04-28T01:05:24;95565.94;;;5.28;58.25
20027;BME280;10174;42.688;23.344;2023-04-28T01:07:50;95569.66;;;5.27;58.51
20027;BME280;10174;42.688;23.344;2023-04-28T01:10:15;95550.78;;;5.10;58.09
20027;BME280;10174;42.688;23.344;2023-04-28T01:12:41;95566.69;;;5.16;58.34
20027;BME280;10174;42.688;23.344;2023-04-28T01:15:09;95539.41;;;5.03;58.99
20027;BME280;10174;42.688;23.344;2023-04-28T01:17:37;95559.38;;;5.12;58.57
20027;BME280;10174;42.688;23.344;2023-04-28T01:20:04;95576.75;;;5.14;58.02
20027;BME280;10174;42.688;23.344;2023-04-28T01:22:29;95548.66;;;5.00;58.67
20027;BME280;10174;42.688;23.344;2023-04-28T01:24:55;95556.63;;;5.00;58.47
20027;BME280;10174;42.688;23.344;2023-04-28T01:27:20;95577.84;;;5.07;58.21
20027;BME280;10174;42.688;23.344;2023-04-28T01:29:47;95568.16;;;4.94;58.76
20027;BME280;10174;42.688;23.344;2023-04-28T01:32:12;95584.16;;;4.94;59.46
20027;BME280;10174;42.688;23.344;2023-04-28T01:34:38;95570.25;;;4.92;59.02
20027;BME280;10174;42.688;23.344;2023-04-28T01:37:03;95493.31;;;4.46;59.46
20027;BME280;10174;42.688;23.344;2023-04-28T01:39:28;95546.19;;;4.80;58.22
20027;BME280;10174;42.688;23.344;2023-04-28T01:41:54;95445.66;;;4.20;58.38
20027;BME280;10174;42.688;23.344;2023-04-28T01:44:19;95578.16;;;4.98;58.20
20027;BME280;10174;42.688;23.344;2023-04-28T01:46:45;95571.84;;;4.93;58.89
20027;BME280;10174;42.688;23.344;2023-04-28T01:49:10;95565.06;;;4.78;58.54
20027;BME280;10174;42.688;23.344;2023-04-28T01:51:36;95448.19;;;4.15;59.21
20027;BME280;10174;42.688;23.344;2023-04-28T01:54:01;95570.03;;;4.93;59.11
20027;BME280;10174;42.688;23.344;2023-04-28T01:56:27;95571.84;;;4.93;58.36
20027;BME280;10174;42.688;23.344;2023-04-28T01:58:52;95552.78;;;4.77;59.01
20027;BME280;10174;42.688;23.344;2023-04-28T02:01:18;95564.53;;;4.88;58.63
20027;BME280;10174;42.688;23.344;2023-04-28T02:03:43;95583.41;;;4.87;58.20
20027;BME280;10174;42.688;23.344;2023-04-28T02:06:08;95559.72;;;4.78;58.96
20027;BME280;10174;42.688;23.344;2023-04-28T02:08:34;95528.81;;;4.59;59.30
20027;BME280;10174;42.688;23.344;2023-04-28T02:10:59;95583.03;;;4.83;58.64
20027;BME280;10174;42.688;23.344;2023-04-28T02:13:25;95576.94;;;4.76;58.98
20027;BME280;10174;42.688;23.344;2023-04-28T02:15:51;95579.38;;;4.77;59.48
20027;BME280;10174;42.688;23.344;2023-04-28T02:18:16;95573.91;;;4.72;58.60
20027;BME280;10174;42.688;23.344;2023-04-28T02:20:41;95590.91;;;4.71;59.01
20027;BME280;10174;42.688;23.344;2023-04-28T02:23:07;95569.75;;;4.58;59.04
20027;BME280;10174;42.688;23.344;2023-04-28T02:25:32;95579.91;;;4.68;58.98
20027;BME280;10174;42.688;23.344;2023-04-28T02:27:58;95574.31;;;4.51;59.73
20027;BME280;10174;42.688;23.344;2023-04-28T02:30:23;95602.44;;;4.65;59.69
20027;BME280;10174;42.688;23.344;2023-04-28T02:32:49;95595.75;;;4.56;59.11
20027;BME280;10174;42.688;23.344;2023-04-28T02:35:14;95600.44;;;4.60;59.65
20027;BME280;10174;42.688;23.344;2023-04-28T02:37:39;95600.44;;;4.60;59.31
20027;BME280;10174;42.688;23.344;2023-04-28T02:40:05;95585.19;;;4.49;59.57
20027;BME280;10174;42.688;23.344;2023-04-28T02:42:31;95599.19;;;4.63;60.20
20027;BME280;10174;42.688;23.344;2023-04-28T02:44:56;95577.00;;;4.51;59.88
20027;BME280;10174;42.688;23.344;2023-04-28T02:47:22;95578.94;;;4.37;59.71
20027;BME280;10174;42.688;23.344;2023-04-28T02:49:47;95614.41;;;4.56;59.63
20027;BME280;10174;42.688;23.344;2023-04-28T02:52:12;95584.22;;;4.43;60.05
20027;BME280;10174;42.688;23.344;2023-04-28T02:54:38;95587.00;;;4.49;59.41
20027;BME280;10174;42.688;23.344;2023-04-28T02:57:03;95615.53;;;4.67;59.75
20027;BME280;10174;42.688;23.344;2023-04-28T02:59:29;95615.75;;;4.65;58.84
20027;BME280;10174;42.688;23.344;2023-04-28T03:01:55;95596.97;;;4.60;59.40
20027;BME280;10174;42.688;23.344;2023-04-28T03:04:20;95594.31;;;4.60;59.49
20027;BME280;10174;42.688;23.344;2023-04-28T03:06:46;95492.75;;;3.94;59.57
20027;BME280;10174;42.688;23.344;2023-04-28T03:09:11;95594.13;;;4.55;60.17
20027;BME280;10174;42.688;23.344;2023-04-28T03:11:38;95588.59;;;4.56;59.70
20027;BME280;10174;42.688;23.344;2023-04-28T03:14:03;95481.56;;;3.85;59.34
20027;BME280;10174;42.688;23.344;2023-04-28T03:16:28;95601.22;;;4.61;60.00
20027;BME280;10174;42.688;23.344;2023-04-28T03:18:54;95621.53;;;4.80;60.05
20027;BME280;10174;42.688;23.344;2023-04-28T03:21:19;95612.66;;;4.68;59.97
20027;BME280;10174;42.688;23.344;2023-04-28T03:23:45;95534.53;;;4.12;59.50
20027;BME280;10174;42.688;23.344;2023-04-28T03:26:10;95609.94;;;4.50;60.08
20027;BME280;10174;42.688;23.344;2023-04-28T03:28:35;95641.78;;;4.63;60.60
20027;BME280;10174;42.688;23.344;2023-04-28T03:31:01;95628.28;;;4.58;59.50
20027;BME280;10174;42.688;23.344;2023-04-28T03:33:27;95651.22;;;4.59;59.70
20027;BME280;10174;42.688;23.344;2023-04-28T03:35:52;95619.78;;;4.49;60.54
20027;BME280;10174;42.688;23.344;2023-04-28T03:38:18;95660.78;;;4.67;59.31
20027;BME280;10174;42.688;23.344;2023-04-28T03:40:44;95663.81;;;4.70;59.85
20027;BME280;10174;42.688;23.344;2023-04-28T03:43:09;95672.84;;;4.69;58.94
20027;BME280;10174;42.688;23.344;2023-04-28T03:45:35;95661.00;;;4.65;59.73
20027;BME280;10174;42.688;23.344;2023-04-28T03:48:00;95608.09;;;4.25;59.95
20027;BME280;10174;42.688;23.344;2023-04-28T03:50:26;95676.53;;;4.68;58.91
20027;BME280;10174;42.688;23.344;2023-04-28T03:52:51;95671.84;;;4.63;59.17
20027;BME280;10174;42.688;23.344;2023-04-28T03:55:17;95652.09;;;4.53;58.72
20027;BME280;10174;42.688;23.344;2023-04-28T03:57:42;95521.75;;;3.70;58.76
20027;BME280;10174;42.688;23.344;2023-04-28T04:00:08;95652.66;;;4.55;59.03
20027;BME280;10174;42.688;23.344;2023-04-28T04:02:34;95595.47;;;4.14;58.45
20027;BME280;10174;42.688;23.344;2023-04-28T04:04:59;95683.81;;;4.79;58.37
20027;BME280;10174;42.688;23.344;2023-04-28T04:07:25;95686.31;;;4.74;57.62
20027;BME280;10174;42.688;23.344;2023-04-28T04:09:50;95672.84;;;4.69;58.01
20027;BME280;10174;42.688;23.344;2023-04-28T04:12:16;95694.47;;;4.79;57.41
20027;BME280;10174;42.688;23.344;2023-04-28T04:14:41;95700.53;;;4.87;57.69
20027;BME280;10174;42.688;23.344;2023-04-28T04:17:07;95603.63;;;4.19;56.97
20027;BME280;10174;42.688;23.344;2023-04-28T04:19:33;95695.06;;;4.81;57.22
20027;BME280;10174;42.688;23.344;2023-04-28T04:21:58;95691.38;;;4.82;57.15
20027;BME280;10174;42.688;23.344;2023-04-28T04:24:23;95656.25;;;4.67;57.48
20027;BME280;10174;42.688;23.344;2023-04-28T04:26:49;95676.25;;;4.76;56.46
20027;BME280;10174;42.688;23.344;2023-04-28T04:29:14;95716.41;;;5.00;56.16
20027;BME280;10174;42.688;23.344;2023-04-28T04:31:40;95698.59;;;4.75;56.30
20027;BME280;10174;42.688;23.344;2023-04-28T04:34:05;95709.25;;;4.75;57.07
20027;BME280;10174;42.688;23.344;2023-04-28T04:36:30;95707.59;;;4.74;57.07
20027;BME280;10174;42.688;23.344;2023-04-28T04:38:57;95636.28;;;4.33;56.65
20027;BME280;10174;42.688;23.344;2023-04-28T04:41:24;95669.84;;;4.59;56.54
20027;BME280;10174;42.688;23.344;2023-04-28T04:43:49;95659.47;;;4.51;56.63
20027;BME280;10174;42.688;23.344;2023-04-28T04:46:15;95611.63;;;4.19;56.60
20027;BME280;10174;42.688;23.344;2023-04-28T04:48:40;95635.88;;;4.29;56.28
20027;BME280;10174;42.688;23.344;2023-04-28T04:51:06;95701.84;;;4.77;56.38
20027;BME280;10174;42.688;23.344;2023-04-28T04:53:31;95604.22;;;4.21;56.58
20027;BME280;10174;42.688;23.344;2023-04-28T04:55:57;95723.81;;;4.98;56.36
20027;BME280;10174;42.688;23.344;2023-04-28T04:58:22;95735.44;;;5.04;55.91
20027;BME280;10174;42.688;23.344;2023-04-28T05:00:48;95698.31;;;4.84;55.73
20027;BME280;10174;42.688;23.344;2023-04-28T05:03:13;95613.13;;;4.33;56.16
20027;BME280;10174;42.688;23.344;2023-04-28T05:05:39;95725.44;;;4.99;55.64
20027;BME280;10174;42.688;23.344;2023-04-28T05:08:04;95723.81;;;4.98;56.45
20027;BME280;10174;42.688;23.344;2023-04-28T05:10:30;95710.31;;;4.93;55.48
20027;BME280;10174;42.688;23.344;2023-04-28T05:12:55;95729.00;;;5.11;56.28
20027;BME280;10174;42.688;23.344;2023-04-28T05:15:21;95721.78;;;5.18;56.39
20027;BME280;10174;42.688;23.344;2023-04-28T05:17:46;95737.22;;;5.35;56.14
20027;BME280;10174;42.688;23.344;2023-04-28T05:20:12;95737.44;;;5.33;54.75
20027;BME280;10174;42.688;23.344;2023-04-28T05:22:37;95720.03;;;5.31;54.43
20027;BME280;10174;42.688;23.344;2023-04-28T05:25:03;95754.44;;;5.58;54.98
20027;BME280;10174;42.688;23.344;2023-04-28T05:27:28;95731.16;;;5.46;54.86
20027;BME280;10174;42.688;23.344;2023-04-28T05:29:53;95721.25;;;5.53;54.40
20027;BME280;10174;42.688;23.344;2023-04-28T05:32:19;95720.44;;;5.53;54.70
20027;BME280;10174;42.688;23.344;2023-04-28T05:34:45;95746.56;;;5.81;54.75
20027;BME280;10174;42.688;23.344;2023-04-28T05:37:10;95736.78;;;5.94;54.53
20027;BME280;10174;42.688;23.344;2023-04-28T05:39:36;95731.22;;;6.02;53.42
20027;BME280;10174;42.688;23.344;2023-04-28T05:42:01;95724.22;;;6.01;53.46
20027;BME280;10174;42.688;23.344;2023-04-28T05:44:29;95725.09;;;5.95;53.58
20027;BME280;10174;42.688;23.344;2023-04-28T05:46:55;95733.66;;;6.03;53.41
20027;BME280;10174;42.688;23.344;2023-04-28T05:49:20;95738.66;;;6.12;52.73
20027;BME280;10174;42.688;23.344;2023-04-28T05:51:46;95720.97;;;5.99;52.86
20027;BME280;10174;42.688;23.344;2023-04-28T05:54:11;95713.47;;;5.89;53.02
20027;BME280;10174;42.688;23.344;2023-04-28T05:56:36;95726.00;;;6.07;53.59
20027;BME280;10174;42.688;23.344;2023-04-28T05:59:02;95633.41;;;5.59;53.00
20027;BME280;10174;42.688;23.344;2023-04-28T06:01:31;95666.91;;;5.73;53.70
20027;BME280;10174;42.688;23.344;2023-04-28T06:03:57;95727.38;;;6.28;53.52
20027;BME280;10174;42.688;23.344;2023-04-28T06:06:23;95700.69;;;6.28;53.45
20027;BME280;10174;42.688;23.344;2023-04-28T06:08:49;95633.91;;;5.86;52.98
20027;BME280;10174;42.688;23.344;2023-04-28T06:11:14;95745.22;;;6.46;52.67
20027;BME280;10174;42.688;23.344;2023-04-28T06:13:40;95734.22;;;6.54;52.49
20027;BME280;10174;42.688;23.344;2023-04-28T06:16:05;95653.81;;;6.20;52.52
20027;BME280;10174;42.688;23.344;2023-04-28T06:18:31;95595.78;;;5.85;52.17
20027;BME280;10174;42.688;23.344;2023-04-28T06:20:57;95741.38;;;6.84;51.77
20027;BME280;10174;42.688;23.344;2023-04-28T06:23:23;95700.50;;;6.72;51.91
20027;BME280;10174;42.688;23.344;2023-04-28T06:25:48;95724.91;;;6.87;51.82
20027;BME280;10174;42.688;23.344;2023-04-28T06:28:14;95610.91;;;6.46;51.72
20027;BME280;10174;42.688;23.344;2023-04-28T06:30:39;95724.50;;;7.38;50.46
20027;BME280;10174;42.688;23.344;2023-04-28T06:33:05;95747.38;;;7.57;49.31
20027;BME280;10174;42.688;23.344;2023-04-28T06:35:31;95638.25;;;6.83;50.03
20027;BME280;10174;42.688;23.344;2023-04-28T06:37:59;95743.75;;;7.63;49.66
20027;BME280;10174;42.688;23.344;2023-04-28T06:40:25;95734.13;;;7.62;49.03
20027;BME280;10174;42.688;23.344;2023-04-28T06:42:51;95704.38;;;7.47;49.11
20027;BME280;10174;42.688;23.344;2023-04-28T06:45:16;95711.69;;;7.40;49.09
20027;BME280;10174;42.688;23.344;2023-04-28T06:47:42;95711.41;;;7.77;48.70
20027;BME280;10174;42.688;23.344;2023-04-28T06:50:07;95682.16;;;7.58;48.62
20027;BME280;10174;42.688;23.344;2023-04-28T06:52:33;95711.47;;;7.53;49.26
20027;BME280;10174;42.688;23.344;2023-04-28T06:54:59;95733.03;;;7.99;48.77
20027;BME280;10174;42.688;23.344;2023-04-28T06:57:25;95739.56;;;8.32;48.07
20027;BME280;10174;42.688;23.344;2023-04-28T06:59:50;95727.34;;;8.24;48.47
20027;BME280;10174;42.688;23.344;2023-04-28T07:02:15;95737.19;;;8.76;47.73
20027;BME280;10174;42.688;23.344;2023-04-28T07:04:41;95608.06;;;7.99;46.50
20027;BME280;10174;42.688;23.344;2023-04-28T07:07:06;95618.00;;;8.16;46.30
20027;BME280;10174;42.688;23.344;2023-04-28T07:09:35;95736.91;;;9.06;46.46
20027;BME280;10174;42.688;23.344;2023-04-28T07:12:01;95629.28;;;8.98;45.14
20027;BME280;10174;42.688;23.344;2023-04-28T07:14:26;95734.41;;;9.17;43.92
20027;BME280;10174;42.688;23.344;2023-04-28T07:16:51;95736.53;;;9.71;43.85
20027;BME280;10174;42.688;23.344;2023-04-28T07:19:17;95725.75;;;9.66;43.36
20027;BME280;10174;42.688;23.344;2023-04-28T07:21:42;95656.63;;;9.34;44.12
20027;BME280;10174;42.688;23.344;2023-04-28T07:24:08;95731.75;;;9.95;43.19
20027;BME280;10174;42.688;23.344;2023-04-28T07:26:34;95731.28;;;9.59;41.43
20027;BME280;10174;42.688;23.344;2023-04-28T07:28:59;95717.34;;;10.01;40.59
20027;BME280;10174;42.688;23.344;2023-04-28T07:31:25;95715.63;;;10.34;39.87
20027;BME280;10174;42.688;23.344;2023-04-28T07:33:50;95727.97;;;10.35;40.55
20027;BME280;10174;42.688;23.344;2023-04-28T07:36:16;95593.03;;;9.29;41.26
20027;BME280;10174;42.688;23.344;2023-04-28T07:38:41;95725.34;;;10.18;41.62
20027;BME280;10174;42.688;23.344;2023-04-28T07:41:07;95605.53;;;9.23;42.30
20027;BME280;10174;42.688;23.344;2023-04-28T07:43:32;95699.50;;;10.34;40.40
20027;BME280;10174;42.688;23.344;2023-04-28T07:45:57;95726.31;;;10.56;40.01
20027;BME280;10174;42.688;23.344;2023-04-28T07:48:23;95711.38;;;10.65;40.60
20027;BME280;10174;42.688;23.344;2023-04-28T07:50:48;95724.59;;;11.32;38.42
20027;BME280;10174;42.688;23.344;2023-04-28T07:53:14;95690.81;;;11.46;37.25
20027;BME280;10174;42.688;23.344;2023-04-28T07:55:39;95706.50;;;11.65;37.52
20027;BME280;10174;42.688;23.344;2023-04-28T07:58:08;95710.34;;;11.74;37.19
20027;BME280;10174;42.688;23.344;2023-04-28T08:00:34;95717.22;;;11.97;36.91
20027;BME280;10174;42.688;23.344;2023-04-28T08:02:59;95717.06;;;11.34;37.62
20027;BME280;10174;42.688;23.344;2023-04-28T08:05:25;95713.91;;;11.42;37.02
20027;BME280;10174;42.688;23.344;2023-04-28T08:07:50;95718.75;;;11.45;37.28
20027;BME280;10174;42.688;23.344;2023-04-28T08:10:16;95712.91;;;11.96;36.79
20027;BME280;10174;42.688;23.344;2023-04-28T08:12:41;95683.22;;;11.91;36.48
20027;BME280;10174;42.688;23.344;2023-04-28T08:15:08;95683.22;;;11.86;35.57
20027;BME280;10174;42.688;23.344;2023-04-28T08:17:34;95700.91;;;12.24;35.25
20027;BME280;10174;42.688;23.344;2023-04-28T08:19:59;95711.28;;;12.58;35.32
20027;BME280;10174;42.688;23.344;2023-04-28T08:22:25;95582.38;;;12.14;34.40
20027;BME280;10174;42.688;23.344;2023-04-28T08:24:50;95716.06;;;14.11;32.82
20027;BME280;10174;42.688;23.344;2023-04-28T08:27:16;95666.81;;;15.77;30.73
20027;BME280;10174;42.688;23.344;2023-04-28T08:29:41;95708.25;;;16.50;29.63
20027;BME280;10174;42.688;23.344;2023-04-28T08:32:07;95704.16;;;16.72;28.66
20027;BME280;10174;42.688;23.344;2023-04-28T08:34:32;95708.09;;;15.64;28.97
20027;BME280;10174;42.688;23.344;2023-04-28T08:36:58;95694.56;;;16.80;28.49
20027;BME280;10174;42.688;23.344;2023-04-28T08:39:24;95605.78;;;16.28;27.80
20027;BME280;10174;42.688;23.344;2023-04-28T08:41:50;95685.84;;;17.68;26.98
20027;BME280;10174;42.688;23.344;2023-04-28T08:44:16;95696.16;;;17.38;27.33
20027;BME280;10174;42.688;23.344;2023-04-28T08:46:43;95677.31;;;17.27;27.83
20027;BME280;10174;42.688;23.344;2023-04-28T08:49:14;95608.75;;;17.36;27.10
20027;BME280;10174;42.688;23.344;2023-04-28T08:51:55;95695.81;;;18.97;25.91
20027;BME280;10174;42.688;23.344;2023-04-28T08:54:22;95690.63;;;19.55;25.33
20027;BME280;10174;42.688;23.344;2023-04-28T08:56:47;95678.09;;;19.54;24.75
20027;BME280;10174;42.688;23.344;2023-04-28T08:59:13;95686.03;;;20.36;24.13
20027;BME280;10174;42.688;23.344;2023-04-28T09:01:39;95669.56;;;20.09;24.31
20027;BME280;10174;42.688;23.344;2023-04-28T09:04:05;95591.84;;;21.26;22.07
20027;BME280;10174;42.688;23.344;2023-04-28T09:06:35;95692.66;;;20.43;24.38
20027;BME280;10174;42.688;23.344;2023-04-28T09:09:21;95683.31;;;20.44;24.10
20027;BME280;10174;42.688;23.344;2023-04-28T09:12:04;95662.00;;;21.78;22.76
20027;BME280;10174;42.688;23.344;2023-04-28T09:14:31;95667.75;;;21.85;22.79
20027;BME280;10174;42.688;23.344;2023-04-28T09:16:59;95651.63;;;21.01;23.58
20027;BME280;10174;42.688;23.344;2023-04-28T09:19:33;95650.75;;;22.48;22.37
20027;BME280;10174;42.688;23.344;2023-04-28T09:21:58;95665.09;;;18.83;24.77
20027;BME280;10174;42.688;23.344;2023-04-28T09:24:35;95665.84;;;19.65;24.29
20027;BME280;10174;42.688;23.344;2023-04-28T09:27:05;95626.97;;;19.19;24.23
20027;BME280;10174;42.688;23.344;2023-04-28T09:29:32;95650.06;;;19.85;24.26
20027;BME280;10174;42.688;23.344;2023-04-28T09:32:24;95651.13;;;19.75;24.07
20027;BME280;10174;42.688;23.344;2023-04-28T09:34:52;95636.66;;;19.66;23.76
20027;BME280;10174;42.688;23.344;2023-04-28T09:37:22;95625.91;;;19.92;23.76
20027;BME280;10174;42.688;23.344;2023-04-28T09:39:52;95637.59;;;19.84;23.83
20027;BME280;10174;42.688;23.344;2023-04-28T09:42:31;95623.63;;;21.39;22.60
20027;BME280;10174;42.688;23.344;2023-04-28T09:45:01;95641.75;;;21.70;22.50
20027;BME280;10174;42.688;23.344;2023-04-28T09:47:28;95626.75;;;20.68;22.74
20027;BME280;10174;42.688;23.344;2023-04-28T09:49:55;95591.84;;;20.38;23.24
20027;BME280;10174;42.688;23.344;2023-04-28T09:52:22;95641.09;;;20.33;23.83
20027;BME280;10174;42.688;23.344;2023-04-28T09:54:52;95540.34;;;19.70;23.00
20027;BME280;10174;42.688;23.344;2023-04-28T09:57:18;95610.13;;;20.29;22.80
20027;BME280;10174;42.688;23.344;2023-04-28T09:59:47;95495.56;;;20.46;22.63
20027;BME280;10174;42.688;23.344;2023-04-28T10:02:18;95603.75;;;21.77;21.45
20027;BME280;10174;42.688;23.344;2023-04-28T10:04:45;95617.38;;;19.85;23.41
20027;BME280;10174;42.688;23.344;2023-04-28T10:07:12;95623.13;;;20.23;22.29
20027;BME280;10174;42.688;23.344;2023-04-28T10:09:41;95581.72;;;20.21;22.33
20027;BME280;10174;42.688;23.344;2023-04-28T10:12:11;95602.44;;;20.49;22.83
20027;BME280;10174;42.688;23.344;2023-04-28T10:14:37;95609.69;;;21.23;21.84
20027;BME280;10174;42.688;23.344;2023-04-28T10:17:03;95569.03;;;21.78;21.11
20027;BME280;10174;42.688;23.344;2023-04-28T10:19:29;95601.47;;;21.32;21.81
20027;BME280;10174;42.688;23.344;2023-04-28T10:27:33;95563.78;;;19.40;23.73
20027;BME280;10174;42.688;23.344;2023-04-28T10:30:22;95581.53;;;19.06;24.06
20027;BME280;10174;42.688;23.344;2023-04-28T10:35:44;95605.50;;;21.26;21.77
20027;BME280;10174;42.688;23.344;2023-04-28T10:40:41;95499.00;;;21.08;20.55
20027;BME280;10174;42.688;23.344;2023-04-28T10:43:11;95583.59;;;21.52;21.39
20027;BME280;10174;42.688;23.344;2023-04-28T10:56:21;95567.16;;;20.96;21.05
20027;BME280;10174;42.688;23.344;2023-04-28T10:58:50;95555.28;;;20.74;21.93
20027;BME280;10174;42.688;23.344;2023-04-28T11:06:28;95574.03;;;21.11;20.82
20027;BME280;10174;42.688;23.344;2023-04-28T11:08:58;95555.50;;;19.54;22.96
20027;BME280;10174;42.688;23.344;2023-04-28T11:11:26;95455.53;;;19.72;22.18
20027;BME280;10174;42.688;23.344;2023-04-28T11:14:35;95479.75;;;21.13;20.84
20027;BME280;10174;42.688;23.344;2023-04-28T11:16:54;95530.50;;;21.62;20.13
20027;BME280;10174;42.688;23.344;2023-04-28T11:19:21;95540.97;;;22.19;19.28
20027;BME280;10174;42.688;23.344;2023-04-28T11:21:47;95530.88;;;22.41;19.34
20027;BME280;10174;42.688;23.344;2023-04-28T11:24:13;95537.75;;;23.02;19.06
20027;BME280;10174;42.688;23.344;2023-04-28T11:26:40;95538.31;;;23.41;18.85
20027;BME280;10174;42.688;23.344;2023-04-28T11:29:06;95543.53;;;22.67;19.50
20027;BME280;10174;42.688;23.344;2023-04-28T11:31:32;95537.16;;;21.82;20.91
20027;BME280;10174;42.688;23.344;2023-04-28T11:38:57;95517.25;;;20.69;22.66
20027;BME280;10174;42.688;23.344;2023-04-28T11:41:23;95523.34;;;20.31;22.90
20027;BME280;10174;42.688;23.344;2023-04-28T11:43:49;95507.75;;;19.56;23.40
20027;BME280;10174;42.688;23.344;2023-04-28T11:46:18;95501.13;;;19.00;23.98
20027;BME280;10174;42.688;23.344;2023-04-28T11:48:45;95520.22;;;18.63;25.40
20027;BME280;10174;42.688;23.344;2023-04-28T11:51:29;95478.00;;;17.56;25.29
20027;BME280;10174;42.688;23.344;2023-04-28T11:53:56;95501.72;;;17.65;25.96
20027;BME280;10174;42.688;23.344;2023-04-28T11:56:22;95517.88;;;16.86;26.18
20027;BME280;10174;42.688;23.344;2023-04-28T11:59:00;95479.81;;;16.59;27.08
20027;BME280;10174;42.688;23.344;2023-04-28T12:01:26;95494.69;;;16.94;27.08
20027;BME280;10174;42.688;23.344;2023-04-28T12:03:52;95512.00;;;17.12;26.56
20027;BME280;10174;42.688;23.344;2023-04-28T12:06:19;95508.53;;;16.92;27.69
20027;BME280;10174;42.688;23.344;2023-04-28T12:08:44;95462.50;;;16.21;28.02
20027;BME280;10174;42.688;23.344;2023-04-28T12:11:11;95507.91;;;16.30;28.56
20027;BME280;10174;42.688;23.344;2023-04-28T12:13:40;95489.00;;;16.25;28.78
20027;BME280;10174;42.688;23.344;2023-04-28T12:16:07;95480.09;;;15.62;28.88
20027;BME280;10174;42.688;23.344;2023-04-28T12:18:33;95376.41;;;14.80;29.09
20027;BME280;10174;42.688;23.344;2023-04-28T12:21:00;95485.88;;;15.36;29.64
20027;BME280;10174;42.688;23.344;2023-04-28T12:23:29;95476.34;;;15.39;29.35
20027;BME280;10174;42.688;23.344;2023-04-28T12:25:56;95471.47;;;15.60;31.10
20027;BME280;10174;42.688;23.344;2023-04-28T12:28:23;95468.16;;;16.06;31.36
20027;BME280;10174;42.688;23.344;2023-04-28T12:30:49;95456.28;;;16.21;32.10
20027;BME280;10174;42.688;23.344;2023-04-28T12:33:24;95473.19;;;16.32;31.42
20027;BME280;10174;42.688;23.344;2023-04-28T12:35:50;95459.91;;;15.97;31.17
20027;BME280;10174;42.688;23.344;2023-04-28T12:38:15;95463.38;;;15.79;31.91
20027;BME280;10174;42.688;23.344;2023-04-28T12:40:41;95456.31;;;16.35;33.61
20027;BME280;10174;42.688;23.344;2023-04-28T12:43:07;95430.84;;;16.36;29.95
20027;BME280;10174;42.688;23.344;2023-04-28T12:45:32;95454.34;;;16.41;32.42
20027;BME280;10174;42.688;23.344;2023-04-28T12:47:58;95456.53;;;15.87;30.87
20027;BME280;10174;42.688;23.344;2023-04-28T12:50:24;95415.69;;;15.40;31.33
20027;BME280;10174;42.688;23.344;2023-04-28T12:52:51;95315.84;;;14.76;31.87
20027;BME280;10174;42.688;23.344;2023-04-28T12:55:16;95446.69;;;15.91;33.62
20027;BME280;10174;42.688;23.344;2023-04-28T12:57:42;95323.19;;;14.94;30.92
20027;BME280;10174;42.688;23.344;2023-04-28T13:00:07;95424.72;;;15.73;32.74
20027;BME280;10174;42.688;23.344;2023-04-28T13:02:33;95429.44;;;15.87;30.67
20027;BME280;10174;42.688;23.344;2023-04-28T13:04:59;95442.56;;;15.74;32.28
20027;BME280;10174;42.688;23.344;2023-04-28T13:07:24;95427.91;;;15.80;31.29
20027;BME280;10174;42.688;23.344;2023-04-28T13:09:50;95424.31;;;15.85;31.22
20027;BME280;10174;42.688;23.344;2023-04-28T13:12:15;95411.03;;;16.02;30.28
20027;BME280;10174;42.688;23.344;2023-04-28T13:14:40;95406.81;;;15.96;29.50
20027;BME280;10174;42.688;23.344;2023-04-28T13:17:06;95425.31;;;16.08;29.54
20027;BME280;10174;42.688;23.344;2023-04-28T13:19:33;95303.56;;;15.08;30.34
20027;BME280;10174;42.688;23.344;2023-04-28T13:21:58;95400.69;;;15.66;29.86
20027;BME280;10174;42.688;23.344;2023-04-28T13:24:24;95414.31;;;15.61;30.08